sensor_id;sensor_type;location;lat;lon;timestamp;temperature;humidity
74869;DHT22;63419;42.262;12.210;2023-08-21T00:01:40;24.10;99.90
74869;DHT22;63419;42.262;12.210;2023-08-21T00:04:07;24.10;99.90
74869;DHT22;63419;42.262;12.210;2023-08-21T00:06:32;24.10;99.90
74869;DHT22;63419;42.262;12.210;2023-08-21T00:09:01;24.10;99.90
74869;DHT22;63419;42.262;12.210;2023-08-21T00:11:28;24.10;99.90
74869;DHT22;63419;42.262;12.210;2023-08-21T00:13:54;24.20;99.90
74869;DHT22;63419;42.262;12.210;2023-08-21T00:16:20;24.20;99.90
74869;DHT22;63419;42.262;12.210;2023-08-21T00:18:46;24.20;99.90
74869;DHT22;63419;42.262;12.210;2023-08-21T00:21:13;24.10;99.90
74869;DHT22;63419;42.262;12.210;2023-08-21T00:23:39;24.10;99.90
74869;DHT22;63419;42.262;12.210;2023-08-21T00:26:05;24.10;99.90
74869;DHT22;63419;42.262;12.210;2023-08-21T00:28:31;24.10;99.90
74869;DHT22;63419;42.262;12.210;2023-08-21T00:31:02;24.10;99.90
74869;DHT22;63419;42.262;12.210;2023-08-21T00:33:30;24.10;99.90
74869;DHT22;63419;42.262;12.210;2023-08-21T00:35:58;24.20;99.90
74869;DHT22;63419;42.262;12.210;2023-08-21T00:38:25;24.10;99.90
74869;DHT22;63419;42.262;12.210;2023-08-21T00:40:52;24.10;99.90
74869;DHT22;63419;42.262;12.210;2023-08-21T00:43:18;24.10;99.90
74869;DHT22;63419;42.262;12.210;2023-08-21T00:45:45;24.10;99.90
74869;DHT22;63419;42.262;12.210;2023-08-21T00:48:13;24.10;99.90
74869;DHT22;63419;42.262;12.210;2023-08-21T00:50:41;24.20;99.90
74869;DHT22;63419;42.262;12.210;2023-08-21T00:53:09;24.10;99.90
74869;DHT22;63419;42.262;12.210;2023-08-21T00:55:36;24.10;99.90
74869;DHT22;63419;42.262;12.210;2023-08-21T00:58:04;24.10;99.90
74869;DHT22;63419;42.262;12.210;2023-08-21T01:00:31;24.20;99.90
74869;DHT22;63419;42.262;12.210;2023-08-21T01:02:58;24.10;99.90
74869;DHT22;63419;42.262;12.210;2023-08-21T01:05:24;24.20;99.90
74869;DHT22;63419;42.262;12.210;2023-08-21T01:07:56;24.10;99.90
74869;DHT22;63419;42.262;12.210;2023-08-21T01:16:07;24.10;99.90
74869;DHT22;63419;42.262;12.210;2023-08-21T01:18:35;24.00;99.90
74869;DHT22;63419;42.262;12.210;2023-08-21T01:21:03;23.70;99.90
74869;DHT22;63419;42.262;12.210;2023-08-21T01:26:00;23.00;99.90
74869;DHT22;63419;42.262;12.210;2023-08-21T01:28:27;22.60;99.90
74869;DHT22;63419;42.262;12.210;2023-08-21T01:31:14;22.40;99.90
74869;DHT22;63419;42.262;12.210;2023-08-21T01:33:52;22.50;99.90
74869;DHT22;63419;42.262;12.210;2023-08-21T01:36:23;22.80;99.90
74869;DHT22;63419;42.262;12.210;2023-08-21T01:38:51;23.10;99.90
74869;DHT22;63419;42.262;12.210;2023-08-21T01:41:18;23.30;99.90
74869;DHT22;63419;42.262;12.210;2023-08-21T01:43:45;23.40;99.90
74869;DHT22;63419;42.262;12.210;2023-08-21T01:46:12;23.50;99.90
74869;DHT22;63419;42.262;12.210;2023-08-21T01:48:39;23.60;99.90
74869;DHT22;63419;42.262;12.210;2023-08-21T01:51:05;23.60;99.90
74869;DHT22;63419;42.262;12.210;2023-08-21T01:53:32;23.60;99.90
74869;DHT22;63419;42.262;12.210;2023-08-21T01:55:58;23.60;99.90
74869;DHT22;63419;42.262;12.210;2023-08-21T01:58:24;23.60;99.90
74869;DHT22;63419;42.262;12.210;2023-08-21T02:00:51;23.60;99.90
74869;DHT22;63419;42.262;12.210;2023-08-21T02:03:17;23.70;99.90
74869;DHT22;63419;42.262;12.210;2023-08-21T02:05:43;23.70;99.90
74869;DHT22;63419;42.262;12.210;2023-08-21T02:08:12;23.70;99.90
74869;DHT22;63419;42.262;12.210;2023-08-21T02:10:49;23.70;99.90
74869;DHT22;63419;42.262;12.210;2023-08-21T02:13:35;23.70;99.90
74869;DHT22;63419;42.262;12.210;2023-08-21T02:16:01;23.70;99.90
74869;DHT22;63419;42.262;12.210;2023-08-21T02:18:27;23.60;99.90
74869;DHT22;63419;42.262;12.210;2023-08-21T02:20:54;23.60;99.90
74869;DHT22;63419;42.262;12.210;2023-08-21T02:23:21;23.60;99.90
74869;DHT22;63419;42.262;12.210;2023-08-21T02:25:50;23.60;99.90
74869;DHT22;63419;42.262;12.210;2023-08-21T02:28:16;23.60;99.90
74869;DHT22;63419;42.262;12.210;2023-08-21T02:30:43;23.70;99.90
74869;DHT22;63419;42.262;12.210;2023-08-21T02:33:09;23.70;99.90
74869;DHT22;63419;42.262;12.210;2023-08-21T02:35:36;23.70;99.90
74869;DHT22;63419;42.262;12.210;2023-08-21T02:38:03;23.70;99.90
74869;DHT22;63419;42.262;12.210;2023-08-21T02:40:29;23.70;99.90
74869;DHT22;63419;42.262;12.210;2023-08-21T02:42:55;23.70;99.90
74869;DHT22;63419;42.262;12.210;2023-08-21T02:45:22;23.70;99.90
74869;DHT22;63419;42.262;12.210;2023-08-21T02:47:48;23.70;99.90
74869;DHT22;63419;42.262;12.210;2023-08-21T02:50:15;23.70;99.90
74869;DHT22;63419;42.262;12.210;2023-08-21T02:52:41;23.80;99.90
74869;DHT22;63419;42.262;12.210;2023-08-21T02:55:08;23.80;99.90
74869;DHT22;63419;42.262;12.210;2023-08-21T02:57:34;23.90;99.90
74869;DHT22;63419;42.262;12.210;2023-08-21T03:00:01;23.70;99.90
74869;DHT22;63419;42.262;12.210;2023-08-21T03:02:28;23.70;99.90
74869;DHT22;63419;42.262;12.210;2023-08-21T03:04:54;23.70;99.90
74869;DHT22;63419;42.262;12.210;2023-08-21T03:07:21;23.60;99.90
74869;DHT22;63419;42.262;12.210;2023-08-21T03:09:48;23.60;99.90
74869;DHT22;63419;42.262;12.210;2023-08-21T03:12:15;23.50;99.90
74869;DHT22;63419;42.262;12.210;2023-08-21T03:14:41;23.50;99.90
74869;DHT22;63419;42.262;12.210;2023-08-21T03:17:07;23.50;99.90
74869;DHT22;63419;42.262;12.210;2023-08-21T03:19:34;23.50;99.90
74869;DHT22;63419;42.262;12.210;2023-08-21T03:22:01;23.50;99.90
74869;DHT22;63419;42.262;12.210;2023-08-21T03:24:27;23.60;99.90
74869;DHT22;63419;42.262;12.210;2023-08-21T03:26:53;23.60;99.90
74869;DHT22;63419;42.262;12.210;2023-08-21T03:29:20;23.70;99.90
74869;DHT22;63419;42.262;12.210;2023-08-21T03:31:50;23.80;99.90
74869;DHT22;63419;42.262;12.210;2023-08-21T03:34:18;23.80;99.90
74869;DHT22;63419;42.262;12.210;2023-08-21T03:36:44;23.80;99.90
74869;DHT22;63419;42.262;12.210;2023-08-21T03:39:11;23.90;99.90
74869;DHT22;63419;42.262;12.210;2023-08-21T03:41:37;24.00;99.90
74869;DHT22;63419;42.262;12.210;2023-08-21T03:44:03;23.90;99.90
74869;DHT22;63419;42.262;12.210;2023-08-21T03:46:30;23.90;99.90
74869;DHT22;63419;42.262;12.210;2023-08-21T03:48:56;23.90;99.90
74869;DHT22;63419;42.262;12.210;2023-08-21T03:51:24;23.80;99.90
74869;DHT22;63419;42.262;12.210;2023-08-21T03:53:50;23.70;99.90
74869;DHT22;63419;42.262;12.210;2023-08-21T03:56:17;23.80;99.90
74869;DHT22;63419;42.262;12.210;2023-08-21T03:58:45;23.80;99.90
74869;DHT22;63419;42.262;12.210;2023-08-21T04:01:11;23.80;99.90
74869;DHT22;63419;42.262;12.210;2023-08-21T04:03:37;23.70;99.90
74869;DHT22;63419;42.262;12.210;2023-08-21T04:06:04;23.70;99.90
74869;DHT22;63419;42.262;12.210;2023-08-21T04:08:30;23.80;99.90
74869;DHT22;63419;42.262;12.210;2023-08-21T04:10:57;23.70;99.90
74869;DHT22;63419;42.262;12.210;2023-08-21T04:13:25;23.70;99.90
74869;DHT22;63419;42.262;12.210;2023-08-21T04:15:54;23.60;99.90
74869;DHT22;63419;42.262;12.210;2023-08-21T04:18:22;23.70;99.90
74869;DHT22;63419;42.262;12.210;2023-08-21T04:20:49;23.60;99.90
74869;DHT22;63419;42.262;12.210;2023-08-21T04:23:16;23.60;99.90
74869;DHT22;63419;42.262;12.210;2023-08-21T04:25:42;23.50;99.90
74869;DHT22;63419;42.262;12.210;2023-08-21T04:28:10;23.40;99.90
74869;DHT22;63419;42.262;12.210;2023-08-21T04:30:36;23.40;99.90
74869;DHT22;63419;42.262;12.210;2023-08-21T04:33:03;23.40;99.90
74869;DHT22;63419;42.262;12.210;2023-08-21T04:35:29;23.30;99.90
74869;DHT22;63419;42.262;12.210;2023-08-21T04:37:56;23.30;99.90
74869;DHT22;63419;42.262;12.210;2023-08-21T04:40:24;23.30;99.90
74869;DHT22;63419;42.262;12.210;2023-08-21T04:42:50;23.30;99.90
74869;DHT22;63419;42.262;12.210;2023-08-21T04:45:17;23.30;99.90
74869;DHT22;63419;42.262;12.210;2023-08-21T04:47:43;23.50;99.90
74869;DHT22;63419;42.262;12.210;2023-08-21T04:50:11;23.60;99.90
74869;DHT22;63419;42.262;12.210;2023-08-21T04:52:38;23.70;99.90
74869;DHT22;63419;42.262;12.210;2023-08-21T04:55:05;23.70;99.90
74869;DHT22;63419;42.262;12.210;2023-08-21T04:57:32;23.70;99.90
74869;DHT22;63419;42.262;12.210;2023-08-21T04:59:59;23.80;99.90
74869;DHT22;63419;42.262;12.210;2023-08-21T05:02:29;23.70;99.90
74869;DHT22;63419;42.262;12.210;2023-08-21T05:04:56;23.70;99.90
74869;DHT22;63419;42.262;12.210;2023-08-21T05:07:22;23.80;99.90
74869;DHT22;63419;42.262;12.210;2023-08-21T05:09:48;23.80;99.90
74869;DHT22;63419;42.262;12.210;2023-08-21T05:12:14;23.90;99.90
74869;DHT22;63419;42.262;12.210;2023-08-21T05:14:41;23.90;99.90
74869;DHT22;63419;42.262;12.210;2023-08-21T05:17:07;24.00;99.90
74869;DHT22;63419;42.262;12.210;2023-08-21T05:19:34;24.00;99.90
74869;DHT22;63419;42.262;12.210;2023-08-21T05:22:00;24.10;99.90
74869;DHT22;63419;42.262;12.210;2023-08-21T05:24:26;24.10;99.90
74869;DHT22;63419;42.262;12.210;2023-08-21T05:26:55;24.10;99.90
74869;DHT22;63419;42.262;12.210;2023-08-21T05:29:22;24.20;99.90
74869;DHT22;63419;42.262;12.210;2023-08-21T05:31:48;24.20;99.90
74869;DHT22;63419;42.262;12.210;2023-08-21T05:34:15;24.30;99.90
74869;DHT22;63419;42.262;12.210;2023-08-21T05:36:41;24.30;99.90
74869;DHT22;63419;42.262;12.210;2023-08-21T05:39:08;24.30;99.90
74869;DHT22;63419;42.262;12.210;2023-08-21T05:41:34;24.40;99.90
74869;DHT22;63419;42.262;12.210;2023-08-21T05:44:01;24.50;99.90
74869;DHT22;63419;42.262;12.210;2023-08-21T05:46:27;24.60;99.90
74869;DHT22;63419;42.262;12.210;2023-08-21T05:48:53;24.50;99.90
74869;DHT22;63419;42.262;12.210;2023-08-21T05:51:20;24.60;99.90
74869;DHT22;63419;42.262;12.210;2023-08-21T05:53:46;24.70;99.90
74869;DHT22;63419;42.262;12.210;2023-08-21T05:56:12;24.80;99.90
74869;DHT22;63419;42.262;12.210;2023-08-21T05:58:39;24.90;99.90
74869;DHT22;63419;42.262;12.210;2023-08-21T06:01:05;25.00;99.90
74869;DHT22;63419;42.262;12.210;2023-08-21T06:03:31;25.00;99.90
74869;DHT22;63419;42.262;12.210;2023-08-21T06:05:58;25.10;99.90
74869;DHT22;63419;42.262;12.210;2023-08-21T06:08:24;25.20;99.90
74869;DHT22;63419;42.262;12.210;2023-08-21T06:10:51;25.30;99.90
74869;DHT22;63419;42.262;12.210;2023-08-21T06:13:18;25.30;99.90
74869;DHT22;63419;42.262;12.210;2023-08-21T06:15:45;25.40;99.90
74869;DHT22;63419;42.262;12.210;2023-08-21T06:18:11;25.50;99.90
74869;DHT22;63419;42.262;12.210;2023-08-21T06:20:37;25.50;99.90
74869;DHT22;63419;42.262;12.210;2023-08-21T06:23:03;25.50;99.90
74869;DHT22;63419;42.262;12.210;2023-08-21T06:25:30;25.60;99.90
74869;DHT22;63419;42.262;12.210;2023-08-21T06:27:58;25.70;99.90
74869;DHT22;63419;42.262;12.210;2023-08-21T06:30:26;25.80;99.90
74869;DHT22;63419;42.262;12.210;2023-08-21T06:32:52;25.90;99.90
74869;DHT22;63419;42.262;12.210;2023-08-21T06:35:19;25.90;99.90
74869;DHT22;63419;42.262;12.210;2023-08-21T06:37:46;26.00;99.90
74869;DHT22;63419;42.262;12.210;2023-08-21T06:40:12;26.10;99.90
74869;DHT22;63419;42.262;12.210;2023-08-21T06:42:39;26.20;99.90
74869;DHT22;63419;42.262;12.210;2023-08-21T06:45:23;26.30;99.90
74869;DHT22;63419;42.262;12.210;2023-08-21T06:47:50;26.30;99.90
74869;DHT22;63419;42.262;12.210;2023-08-21T06:50:17;26.50;99.90
74869;DHT22;63419;42.262;12.210;2023-08-21T06:52:43;26.60;99.90
74869;DHT22;63419;42.262;12.210;2023-08-21T06:55:09;26.60;99.90
74869;DHT22;63419;42.262;12.210;2023-08-21T06:57:36;26.70;99.90
74869;DHT22;63419;42.262;12.210;2023-08-21T07:00:05;26.80;99.90
74869;DHT22;63419;42.262;12.210;2023-08-21T07:02:32;26.90;99.90
74869;DHT22;63419;42.262;12.210;2023-08-21T07:04:59;26.90;99.90
74869;DHT22;63419;42.262;12.210;2023-08-21T07:07:25;27.00;99.90
74869;DHT22;63419;42.262;12.210;2023-08-21T07:09:51;27.10;99.90
74869;DHT22;63419;42.262;12.210;2023-08-21T07:12:17;27.20;99.90
74869;DHT22;63419;42.262;12.210;2023-08-21T07:14:44;27.30;99.90
74869;DHT22;63419;42.262;12.210;2023-08-21T07:17:10;27.40;99.90
74869;DHT22;63419;42.262;12.210;2023-08-21T07:19:36;27.50;99.90
74869;DHT22;63419;42.262;12.210;2023-08-21T07:22:02;27.60;99.90
74869;DHT22;63419;42.262;12.210;2023-08-21T07:24:29;27.60;99.90
74869;DHT22;63419;42.262;12.210;2023-08-21T07:26:55;27.60;99.90
74869;DHT22;63419;42.262;12.210;2023-08-21T07:29:22;27.70;99.90
74869;DHT22;63419;42.262;12.210;2023-08-21T07:31:48;27.80;99.90
74869;DHT22;63419;42.262;12.210;2023-08-21T07:36:59;28.00;99.90
74869;DHT22;63419;42.262;12.210;2023-08-21T07:39:26;28.10;99.90
74869;DHT22;63419;42.262;12.210;2023-08-21T07:41:52;28.20;99.90
74869;DHT22;63419;42.262;12.210;2023-08-21T07:44:19;28.30;99.90
74869;DHT22;63419;42.262;12.210;2023-08-21T07:46:45;28.30;99.90
74869;DHT22;63419;42.262;12.210;2023-08-21T07:49:11;28.30;99.90
74869;DHT22;63419;42.262;12.210;2023-08-21T07:51:38;28.30;99.90
74869;DHT22;63419;42.262;12.210;2023-08-21T07:54:04;28.30;99.90
74869;DHT22;63419;42.262;12.210;2023-08-21T07:56:30;28.40;99.90
74869;DHT22;63419;42.262;12.210;2023-08-21T07:58:57;28.40;99.90
74869;DHT22;63419;42.262;12.210;2023-08-21T08:01:23;28.50;99.90
74869;DHT22;63419;42.262;12.210;2023-08-21T08:03:49;28.60;99.90
74869;DHT22;63419;42.262;12.210;2023-08-21T08:06:16;28.70;99.90
74869;DHT22;63419;42.262;12.210;2023-08-21T08:08:42;28.80;99.90
74869;DHT22;63419;42.262;12.210;2023-08-21T08:11:08;28.90;99.90
74869;DHT22;63419;42.262;12.210;2023-08-21T08:13:35;29.00;99.90
74869;DHT22;63419;42.262;12.210;2023-08-21T08:16:01;29.20;99.90
74869;DHT22;63419;42.262;12.210;2023-08-21T08:18:28;29.20;99.90
74869;DHT22;63419;42.262;12.210;2023-08-21T08:20:54;29.20;99.90
74869;DHT22;63419;42.262;12.210;2023-08-21T08:23:21;29.30;99.90
74869;DHT22;63419;42.262;12.210;2023-08-21T08:25:49;29.40;99.90
74869;DHT22;63419;42.262;12.210;2023-08-21T08:28:16;29.40;99.90
74869;DHT22;63419;42.262;12.210;2023-08-21T08:30:42;29.50;99.90
74869;DHT22;63419;42.262;12.210;2023-08-21T08:33:08;29.60;99.90
74869;DHT22;63419;42.262;12.210;2023-08-21T08:35:34;29.80;99.90
74869;DHT22;63419;42.262;12.210;2023-08-21T08:38:01;29.80;99.90
74869;DHT22;63419;42.262;12.210;2023-08-21T08:40:28;29.90;99.90
74869;DHT22;63419;42.262;12.210;2023-08-21T08:42:54;30.00;99.90
74869;DHT22;63419;42.262;12.210;2023-08-21T08:45:29;30.30;99.90
74869;DHT22;63419;42.262;12.210;2023-08-21T08:47:59;30.30;99.90
74869;DHT22;63419;42.262;12.210;2023-08-21T08:50:31;30.30;99.90
74869;DHT22;63419;42.262;12.210;2023-08-21T08:53:00;30.40;99.90
74869;DHT22;63419;42.262;12.210;2023-08-21T08:55:27;30.50;99.90
74869;DHT22;63419;42.262;12.210;2023-08-21T08:57:54;30.60;99.90
74869;DHT22;63419;42.262;12.210;2023-08-21T09:00:20;30.70;99.90
74869;DHT22;63419;42.262;12.210;2023-08-21T09:02:48;31.00;99.90
74869;DHT22;63419;42.262;12.210;2023-08-21T09:05:15;31.10;99.90
74869;DHT22;63419;42.262;12.210;2023-08-21T09:07:42;31.20;99.90
74869;DHT22;63419;42.262;12.210;2023-08-21T09:10:15;31.20;99.70
74869;DHT22;63419;42.262;12.210;2023-08-21T09:12:45;31.30;99.90
74869;DHT22;63419;42.262;12.210;2023-08-21T09:15:12;31.50;99.90
74869;DHT22;63419;42.262;12.210;2023-08-21T09:17:38;31.40;99.90
74869;DHT22;63419;42.262;12.210;2023-08-21T09:20:06;31.40;99.90
74869;DHT22;63419;42.262;12.210;2023-08-21T09:22:33;31.60;99.90
74869;DHT22;63419;42.262;12.210;2023-08-21T09:25:03;31.60;99.90
74869;DHT22;63419;42.262;12.210;2023-08-21T09:27:38;31.80;99.90
74869;DHT22;63419;42.262;12.210;2023-08-21T09:30:10;31.90;99.90
74869;DHT22;63419;42.262;12.210;2023-08-21T09:33:00;32.20;99.00
74869;DHT22;63419;42.262;12.210;2023-08-21T09:35:33;32.60;98.70
74869;DHT22;63419;42.262;12.210;2023-08-21T09:37:59;32.70;98.00
74869;DHT22;63419;42.262;12.210;2023-08-21T09:40:26;32.90;97.90
74869;DHT22;63419;42.262;12.210;2023-08-21T09:42:53;33.00;97.80
74869;DHT22;63419;42.262;12.210;2023-08-21T09:45:24;32.80;97.80
74869;DHT22;63419;42.262;12.210;2023-08-21T09:47:52;33.00;97.50
74869;DHT22;63419;42.262;12.210;2023-08-21T09:50:19;33.30;97.50
74869;DHT22;63419;42.262;12.210;2023-08-21T09:52:46;33.60;97.40
74869;DHT22;63419;42.262;12.210;2023-08-21T09:55:15;33.90;97.50
74869;DHT22;63419;42.262;12.210;2023-08-21T09:57:43;34.20;96.10
74869;DHT22;63419;42.262;12.210;2023-08-21T10:00:11;34.30;96.20
74869;DHT22;63419;42.262;12.210;2023-08-21T10:02:51;35.00;96.10
74869;DHT22;63419;42.262;12.210;2023-08-21T10:05:19;35.20;95.50
74869;DHT22;63419;42.262;12.210;2023-08-21T10:07:48;35.30;95.00
74869;DHT22;63419;42.262;12.210;2023-08-21T10:10:16;35.50;94.20
74869;DHT22;63419;42.262;12.210;2023-08-21T10:12:43;35.80;94.20
74869;DHT22;63419;42.262;12.210;2023-08-21T10:15:09;35.70;93.80
74869;DHT22;63419;42.262;12.210;2023-08-21T10:17:37;35.40;94.70
74869;DHT22;63419;42.262;12.210;2023-08-21T10:20:06;35.40;95.00
74869;DHT22;63419;42.262;12.210;2023-08-21T10:22:52;35.70;93.80
74869;DHT22;63419;42.262;12.210;2023-08-21T10:25:24;36.00;93.50
74869;DHT22;63419;42.262;12.210;2023-08-21T10:27:55;36.30;93.20
74869;DHT22;63419;42.262;12.210;2023-08-21T10:30:27;35.80;93.90
74869;DHT22;63419;42.262;12.210;2023-08-21T10:32:55;36.60;93.70
74869;DHT22;63419;42.262;12.210;2023-08-21T10:35:29;37.10;92.80
74869;DHT22;63419;42.262;12.210;2023-08-21T10:38:14;37.10;92.10
74869;DHT22;63419;42.262;12.210;2023-08-21T10:41:14;37.40;92.60
74869;DHT22;63419;42.262;12.210;2023-08-21T10:43:41;38.30;92.00
74869;DHT22;63419;42.262;12.210;2023-08-21T10:46:09;38.30;91.90
74869;DHT22;63419;42.262;12.210;2023-08-21T10:48:37;38.40;91.20
74869;DHT22;63419;42.262;12.210;2023-08-21T10:51:06;38.50;91.30
74869;DHT22;63419;42.262;12.210;2023-08-21T10:53:34;39.40;91.00
74869;DHT22;63419;42.262;12.210;2023-08-21T10:56:02;39.40;90.90
74869;DHT22;63419;42.262;12.210;2023-08-21T10:58:42;39.60;90.00
74869;DHT22;63419;42.262;12.210;2023-08-21T11:01:09;39.10;90.10
74869;DHT22;63419;42.262;12.210;2023-08-21T11:03:39;39.20;89.80
74869;DHT22;63419;42.262;12.210;2023-08-21T11:06:07;39.50;88.50
74869;DHT22;63419;42.262;12.210;2023-08-21T11:08:35;39.80;87.30
74869;DHT22;63419;42.262;12.210;2023-08-21T11:11:03;39.80;85.90
74869;DHT22;63419;42.262;12.210;2023-08-21T11:13:31;40.20;85.70
74869;DHT22;63419;42.262;12.210;2023-08-21T11:16:03;39.60;85.70
74869;DHT22;63419;42.262;12.210;2023-08-21T11:18:32;39.50;86.10
74869;DHT22;63419;42.262;12.210;2023-08-21T11:21:04;40.00;86.90
74869;DHT22;63419;42.262;12.210;2023-08-21T11:23:35;40.80;86.20
74869;DHT22;63419;42.262;12.210;2023-08-21T11:26:03;41.90;84.70
74869;DHT22;63419;42.262;12.210;2023-08-21T11:28:30;42.10;82.50
74869;DHT22;63419;42.262;12.210;2023-08-21T11:30:58;41.50;81.70
74869;DHT22;63419;42.262;12.210;2023-08-21T11:33:25;40.20;83.60
74869;DHT22;63419;42.262;12.210;2023-08-21T11:35:53;39.20;85.80
74869;DHT22;63419;42.262;12.210;2023-08-21T11:38:21;38.40;85.90
74869;DHT22;63419;42.262;12.210;2023-08-21T11:43:20;39.60;86.60
74869;DHT22;63419;42.262;12.210;2023-08-21T11:45:47;39.80;86.00
74869;DHT22;63419;42.262;12.210;2023-08-21T11:48:13;40.20;85.40
74869;DHT22;63419;42.262;12.210;2023-08-21T11:50:40;39.50;84.40
74869;DHT22;63419;42.262;12.210;2023-08-21T11:53:06;39.60;87.70
74869;DHT22;63419;42.262;12.210;2023-08-21T11:55:34;38.50;87.00
74869;DHT22;63419;42.262;12.210;2023-08-21T11:58:02;39.00;87.00
74869;DHT22;63419;42.262;12.210;2023-08-21T12:00:30;38.50;87.40
74869;DHT22;63419;42.262;12.210;2023-08-21T12:02:56;37.80;87.30
74869;DHT22;63419;42.262;12.210;2023-08-21T12:05:24;40.30;86.60
74869;DHT22;63419;42.262;12.210;2023-08-21T12:07:52;42.10;83.10
74869;DHT22;63419;42.262;12.210;2023-08-21T12:10:27;43.50;82.50
74869;DHT22;63419;42.262;12.210;2023-08-21T12:12:55;43.30;77.20
74869;DHT22;63419;42.262;12.210;2023-08-21T12:15:22;41.30;79.90
74869;DHT22;63419;42.262;12.210;2023-08-21T12:17:48;38.80;81.10
74869;DHT22;63419;42.262;12.210;2023-08-21T12:20:15;38.80;82.00
74869;DHT22;63419;42.262;12.210;2023-08-21T12:22:41;39.50;80.80
74869;DHT22;63419;42.262;12.210;2023-08-21T12:25:08;40.60;81.50
74869;DHT22;63419;42.262;12.210;2023-08-21T12:27:36;41.10;81.50
74869;DHT22;63419;42.262;12.210;2023-08-21T12:30:03;42.40;80.10
74869;DHT22;63419;42.262;12.210;2023-08-21T12:32:30;43.00;80.60
74869;DHT22;63419;42.262;12.210;2023-08-21T12:34:56;43.20;80.30
74869;DHT22;63419;42.262;12.210;2023-08-21T12:37:22;43.20;79.40
74869;DHT22;63419;42.262;12.210;2023-08-21T12:39:48;41.40;78.80
74869;DHT22;63419;42.262;12.210;2023-08-21T12:42:14;39.60;81.40
74869;DHT22;63419;42.262;12.210;2023-08-21T12:44:40;39.50;82.00
74869;DHT22;63419;42.262;12.210;2023-08-21T12:47:07;39.50;79.50
74869;DHT22;63419;42.262;12.210;2023-08-21T12:49:33;39.90;81.00
74869;DHT22;63419;42.262;12.210;2023-08-21T12:52:01;40.70;80.10
74869;DHT22;63419;42.262;12.210;2023-08-21T12:54:30;40.20;79.40
74869;DHT22;63419;42.262;12.210;2023-08-21T12:56:56;41.10;79.00
74869;DHT22;63419;42.262;12.210;2023-08-21T12:59:23;39.40;80.20
74869;DHT22;63419;42.262;12.210;2023-08-21T13:01:50;38.90;81.40
74869;DHT22;63419;42.262;12.210;2023-08-21T13:04:16;39.10;82.60
74869;DHT22;63419;42.262;12.210;2023-08-21T13:06:42;39.30;80.00
74869;DHT22;63419;42.262;12.210;2023-08-21T13:09:08;39.50;80.20
74869;DHT22;63419;42.262;12.210;2023-08-21T13:11:34;40.70;79.60
74869;DHT22;63419;42.262;12.210;2023-08-21T13:14:00;40.60;77.70
74869;DHT22;63419;42.262;12.210;2023-08-21T13:16:26;39.60;77.60
74869;DHT22;63419;42.262;12.210;2023-08-21T13:18:52;39.70;79.20
74869;DHT22;63419;42.262;12.210;2023-08-21T13:21:18;39.30;77.20
74869;DHT22;63419;42.262;12.210;2023-08-21T13:23:45;38.00;80.10
74869;DHT22;63419;42.262;12.210;2023-08-21T13:26:11;37.80;81.60
74869;DHT22;63419;42.262;12.210;2023-08-21T13:28:37;39.90;78.10
74869;DHT22;63419;42.262;12.210;2023-08-21T13:31:03;39.40;79.30
74869;DHT22;63419;42.262;12.210;2023-08-21T13:33:29;37.90;80.00
74869;DHT22;63419;42.262;12.210;2023-08-21T13:35:56;37.50;80.30
74869;DHT22;63419;42.262;12.210;2023-08-21T13:38:22;35.40;83.10
74869;DHT22;63419;42.262;12.210;2023-08-21T13:40:48;35.90;84.40
74869;DHT22;63419;42.262;12.210;2023-08-21T13:43:14;35.60;83.00
74869;DHT22;63419;42.262;12.210;2023-08-21T13:45:40;37.00;81.40
74869;DHT22;63419;42.262;12.210;2023-08-21T13:48:06;37.30;80.70
74869;DHT22;63419;42.262;12.210;2023-08-21T13:50:33;38.00;81.30
74869;DHT22;63419;42.262;12.210;2023-08-21T13:52:59;38.40;81.10
74869;DHT22;63419;42.262;12.210;2023-08-21T13:55:25;37.60;80.80
74869;DHT22;63419;42.262;12.210;2023-08-21T13:57:52;36.50;83.40
74869;DHT22;63419;42.262;12.210;2023-08-21T14:00:18;36.80;81.60
74869;DHT22;63419;42.262;12.210;2023-08-21T14:02:46;36.60;81.90
74869;DHT22;63419;42.262;12.210;2023-08-21T14:05:12;37.90;80.50
74869;DHT22;63419;42.262;12.210;2023-08-21T14:07:38;37.70;81.40
74869;DHT22;63419;42.262;12.210;2023-08-21T14:10:05;40.00;78.80
74869;DHT22;63419;42.262;12.210;2023-08-21T14:12:31;40.50;79.50
74869;DHT22;63419;42.262;12.210;2023-08-21T14:14:59;38.70;79.40
74869;DHT22;63419;42.262;12.210;2023-08-21T14:17:25;38.90;81.30
74869;DHT22;63419;42.262;12.210;2023-08-21T14:19:52;39.60;78.70
74869;DHT22;63419;42.262;12.210;2023-08-21T14:22:18;41.90;78.20
74869;DHT22;63419;42.262;12.210;2023-08-21T14:24:45;42.20;77.00
74869;DHT22;63419;42.262;12.210;2023-08-21T14:27:11;42.90;76.80
74869;DHT22;63419;42.262;12.210;2023-08-21T14:29:37;41.50;77.80
74869;DHT22;63419;42.262;12.210;2023-08-21T14:32:03;40.90;77.20
74869;DHT22;63419;42.262;12.210;2023-08-21T14:34:30;39.20;77.10
74869;DHT22;63419;42.262;12.210;2023-08-21T14:36:56;39.90;77.80
74869;DHT22;63419;42.262;12.210;2023-08-21T14:39:24;39.90;77.70
74869;DHT22;63419;42.262;12.210;2023-08-21T14:41:57;41.20;78.20
74869;DHT22;63419;42.262;12.210;2023-08-21T14:44:24;39.80;78.00
74869;DHT22;63419;42.262;12.210;2023-08-21T14:46:55;39.20;78.40
74869;DHT22;63419;42.262;12.210;2023-08-21T14:49:22;39.40;78.20
74869;DHT22;63419;42.262;12.210;2023-08-21T14:51:49;39.70;78.10
74869;DHT22;63419;42.262;12.210;2023-08-21T14:54:15;40.40;77.40
74869;DHT22;63419;42.262;12.210;2023-08-21T14:56:42;41.30;77.90
74869;DHT22;63419;42.262;12.210;2023-08-21T14:59:08;37.90;78.50
74869;DHT22;63419;42.262;12.210;2023-08-21T15:01:37;37.40;80.90
74869;DHT22;63419;42.262;12.210;2023-08-21T15:04:05;37.70;80.30
74869;DHT22;63419;42.262;12.210;2023-08-21T15:06:32;37.40;80.40
74869;DHT22;63419;42.262;12.210;2023-08-21T15:08:58;35.80;82.40
74869;DHT22;63419;42.262;12.210;2023-08-21T15:11:24;36.00;84.20
74869;DHT22;63419;42.262;12.210;2023-08-21T15:13:50;36.50;80.20
74869;DHT22;63419;42.262;12.210;2023-08-21T15:16:17;36.70;80.60
74869;DHT22;63419;42.262;12.210;2023-08-21T15:18:43;37.50;79.60
74869;DHT22;63419;42.262;12.210;2023-08-21T15:21:09;38.80;79.60
74869;DHT22;63419;42.262;12.210;2023-08-21T15:23:36;39.40;78.60
74869;DHT22;63419;42.262;12.210;2023-08-21T15:26:02;38.60;78.40
74869;DHT22;63419;42.262;12.210;2023-08-21T15:28:28;38.30;77.30
74869;DHT22;63419;42.262;12.210;2023-08-21T15:30:54;38.90;78.00